Bismarck, North Dakota
Current Conditions -  °F | °C
As of 3:52 PM on Sunday 21 Dec 2014 (Local Time) from KBIS Reporting Station
Clear Clear  
Wind Chill: 31°   Ceiling: Unl
Heat Index: 37°   Visibility: 10mi
Dew Point: 28°   Wind: 8mph
Humidity: 70%   Direction: 130°SE
Pressure: 29.43"   Gusts: NA
Location:  46.81°N, 100.77°W
Report Text: KBIS 212152Z 13007KT 10SM CLR 03/M02 A2943 RMK AO2 SLP990 T00281022
Loading
Personal Weather Stations






























Interactive Weather Map New forecast layout! Learn more

10-Day Weather Forecast

Advertisements
Track Severe Weather on mobile